createdAt,value
2023-01-07T00:01:14.169Z,99580.25
2023-01-07T00:03:41.858Z,99580.06
2023-01-07T00:06:12.654Z,99580.06
2023-01-07T00:08:41.615Z,99569.78
2023-01-07T00:11:10.900Z,99564.63
2023-01-07T00:13:37.380Z,99559.28
2023-01-07T00:16:07.404Z,99563.78
2023-01-07T00:18:35.236Z,99556.81
2023-01-07T00:21:04.465Z,99560.44
2023-01-07T00:23:32.179Z,99552.63
2023-01-07T00:26:06.654Z,99544.81
2023-01-07T00:28:34.748Z,99537.84
2023-01-07T00:31:07.457Z,99531.69
2023-01-07T00:33:34.006Z,99517.56
2023-01-07T00:36:06.582Z,99514.72
2023-01-07T00:38:33.087Z,99506.91
2023-01-07T00:40:59.539Z,99504.59
2023-01-07T00:43:25.984Z,99503.72
2023-01-07T00:45:52.642Z,99504.59
2023-01-07T00:48:19.537Z,99503.41
2023-01-07T00:50:48.575Z,99498.78
2023-01-07T00:53:15.754Z,99492.59
2023-01-07T00:55:42.228Z,99499.91
2023-01-07T00:58:14.179Z,99493.28
2023-01-07T01:00:40.530Z,99490.75
2023-01-07T01:03:07.747Z,99490.94
2023-01-07T01:05:34.104Z,99481.63
2023-01-07T01:08:00.461Z,99479.94
2023-01-07T01:10:26.829Z,99478.28
2023-01-07T01:12:53.142Z,99478.28
2023-01-07T01:15:20.045Z,99474.63
2023-01-07T01:17:46.422Z,99473.97
2023-01-07T01:20:14.821Z,99469.63
2023-01-07T01:22:42.047Z,99460.69
2023-01-07T01:25:09.513Z,99458.00
2023-01-07T01:27:36.087Z,99448.22
2023-01-07T01:30:03.093Z,99460.50
2023-01-07T01:32:29.645Z,99463.34
2023-01-07T01:34:56.099Z,99450.19
2023-01-07T01:37:22.485Z,99455.00
2023-01-07T01:39:48.896Z,99451.97
2023-01-07T01:42:18.788Z,99444.66
2023-01-07T01:44:59.575Z,99438.38
2023-01-07T01:47:43.702Z,99426.72
2023-01-07T01:50:24.903Z,99425.41
2023-01-07T01:53:02.383Z,99416.28
2023-01-07T01:55:45.858Z,99405.50
2023-01-07T01:58:20.491Z,99411.63
2023-01-07T02:00:47.386Z,99405.50
2023-01-07T02:03:18.843Z,99414.75
2023-01-07T02:05:46.182Z,99407.44
2023-01-07T02:08:12.947Z,99405.97
2023-01-07T02:10:39.704Z,99395.81
2023-01-07T02:13:42.994Z,99384.16
2023-01-07T02:16:23.601Z,99378.53
2023-01-07T02:18:59.224Z,99371.22
2023-01-07T02:21:51.511Z,99366.75
2023-01-07T02:24:47.617Z,99357.13
2023-01-07T02:27:32.398Z,99357.94
2023-01-07T02:30:17.371Z,99345.34
2023-01-07T02:32:46.745Z,99347.31
2023-01-07T02:35:27.811Z,99346.31
2023-01-07T02:38:04.362Z,99341.84
2023-01-07T02:41:05.841Z,99334.34
2023-01-07T02:44:02.709Z,99338.34
2023-01-07T02:46:40.235Z,99330.53
2023-01-07T02:49:11.380Z,99330.50
2023-01-07T02:51:40.387Z,99329.19
2023-01-07T02:54:12.171Z,99319.38
2023-01-07T02:57:06.901Z,99309.56
2023-01-07T02:59:49.344Z,99304.44
2023-01-07T03:02:23.569Z,99302.09
2023-01-07T03:05:07.130Z,99304.44
2023-01-07T03:07:55.333Z,99295.81
2023-01-07T03:10:25.975Z,99297.97
2023-01-07T03:13:03.517Z,99291.47
2023-01-07T03:15:40.566Z,99288.66
2023-01-07T03:18:22.181Z,99271.19
2023-01-07T03:20:53.266Z,99273.84
2023-01-07T03:23:22.707Z,99269.53
2023-01-07T03:25:52.025Z,99266.22
2023-01-07T03:28:24.565Z,99262.25
2023-01-07T03:30:54.508Z,99266.56
2023-01-07T03:33:36.098Z,99257.91
2023-01-07T03:36:06.089Z,99252.09
2023-01-07T03:38:34.761Z,99256.59
2023-01-07T03:41:01.694Z,99247.97
2023-01-07T03:43:28.175Z,99249.13
2023-01-07T03:45:57.798Z,99242.66
2023-01-07T03:48:24.178Z,99239.16
2023-01-07T03:50:50.520Z,99230.69
2023-01-07T03:53:16.839Z,99228.69
2023-01-07T03:55:43.334Z,99228.53
2023-01-07T03:58:09.940Z,99232.69
2023-01-07T04:00:36.279Z,99233.66
2023-01-07T04:03:02.797Z,99237.00
2023-01-07T04:05:29.308Z,99228.34
2023-01-07T04:07:55.649Z,99231.00
2023-01-07T04:10:22.071Z,99237.34
2023-01-07T04:12:48.351Z,99233.66
2023-01-07T04:15:14.942Z,99240.66
2023-01-07T04:17:41.382Z,99230.88
2023-01-07T04:20:08.267Z,99231.53
2023-01-07T04:22:34.678Z,99237.69
2023-01-07T04:25:00.995Z,99243.31
2023-01-07T04:27:27.415Z,99232.69
2023-01-07T04:29:53.768Z,99231.53
2023-01-07T04:32:20.071Z,99229.84
2023-01-07T04:34:46.548Z,99232.38
2023-01-07T04:37:12.855Z,99239.34
2023-01-07T04:39:39.211Z,99231.88
2023-01-07T04:42:05.807Z,99241.63
2023-01-07T04:44:32.131Z,99236.66
2023-01-07T04:46:58.504Z,99240.31
2023-01-07T04:49:24.910Z,99236.16
2023-01-07T04:51:51.242Z,99234.31
2023-01-07T04:54:17.910Z,99230.84
2023-01-07T04:56:44.285Z,99226.34
2023-01-07T04:59:10.771Z,99229.19
2023-01-07T05:01:37.236Z,99220.06
2023-01-07T05:04:03.926Z,99221.56
2023-01-07T05:06:30.389Z,99207.44
2023-01-07T05:08:56.886Z,99205.47
2023-01-07T05:11:23.365Z,99195.81
2023-01-07T05:13:49.911Z,99195.00
2023-01-07T05:16:17.466Z,99187.84
2023-01-07T05:18:44.312Z,99192.00
2023-01-07T05:21:11.007Z,99184.03
2023-01-07T05:23:37.664Z,99174.22
2023-01-07T05:26:04.263Z,99173.22
2023-01-07T05:28:30.625Z,99175.38
2023-01-07T05:30:57.242Z,99168.41
2023-01-07T05:33:23.831Z,99171.06
2023-01-07T05:35:50.263Z,99172.91
2023-01-07T05:38:16.958Z,99180.06
2023-01-07T05:40:43.600Z,99174.56
2023-01-07T05:43:09.953Z,99170.06
2023-01-07T05:45:36.410Z,99171.91
2023-01-07T05:48:02.885Z,99175.56
2023-01-07T05:50:29.285Z,99172.72
2023-01-07T05:52:55.720Z,99177.41
2023-01-07T05:55:22.058Z,99175.56
2023-01-07T05:57:48.396Z,99184.22
2023-01-07T06:00:15.147Z,99181.38
2023-01-07T06:02:41.494Z,99179.72
2023-01-07T06:05:08.619Z,99176.06
2023-01-07T06:07:35.697Z,99170.41
2023-01-07T06:10:03.186Z,99178.22
2023-01-07T06:12:30.178Z,99176.25
2023-01-07T06:14:56.582Z,99169.91
2023-01-07T06:17:23.028Z,99176.72
2023-01-07T06:19:49.439Z,99172.25
2023-01-07T06:22:15.863Z,99181.88
2023-01-07T06:24:42.212Z,99186.88
2023-01-07T06:27:10.409Z,99188.00
2023-01-07T06:29:36.755Z,99201.13
2023-01-07T06:32:03.282Z,99203.63
2023-01-07T06:34:29.659Z,99206.59
2023-01-07T06:36:56.074Z,99221.72
2023-01-07T06:39:22.575Z,99223.06
2023-01-07T06:41:48.950Z,99225.38
2023-01-07T06:44:15.556Z,99232.19
2023-01-07T06:46:42.245Z,99243.31
2023-01-07T06:49:08.907Z,99248.16
2023-01-07T06:51:35.389Z,99263.56
2023-01-07T06:54:01.829Z,99264.22
2023-01-07T06:56:28.184Z,99266.88
2023-01-07T06:58:54.827Z,99268.53
2023-01-07T07:01:21.607Z,99286.00
2023-01-07T07:03:48.091Z,99296.13
2023-01-07T07:06:14.580Z,99307.06
2023-01-07T07:08:40.941Z,99307.41
2023-01-07T07:11:07.281Z,99308.41
2023-01-07T07:13:33.656Z,99307.25
2023-01-07T07:16:00.068Z,99304.41
2023-01-07T07:18:26.442Z,99301.13
2023-01-07T07:20:53.115Z,99301.94
2023-01-07T07:23:19.464Z,99304.41
2023-01-07T07:25:45.796Z,99298.09
2023-01-07T07:28:12.462Z,99295.97
2023-01-07T07:30:46.735Z,99303.09
2023-01-07T07:33:14.426Z,99291.97
2023-01-07T07:35:40.771Z,99291.47
2023-01-07T07:38:07.204Z,99292.16
2023-01-07T07:40:33.687Z,99286.84
2023-01-07T07:43:11.083Z,99293.66
2023-01-07T07:45:39.956Z,99288.16
2023-01-07T07:48:07.380Z,99287.34
2023-01-07T07:50:34.864Z,99299.13
2023-01-07T07:53:01.304Z,99293.47
2023-01-07T07:55:27.961Z,99274.88
2023-01-07T07:57:55.152Z,99272.88
2023-01-07T08:00:21.864Z,99278.06
2023-01-07T08:02:48.344Z,99270.75
2023-01-07T08:05:14.732Z,99272.88
2023-01-07T08:07:42.382Z,99272.53
2023-01-07T08:10:09.243Z,99266.06
2023-01-07T08:12:39.065Z,99267.75
2023-01-07T08:15:07.437Z,99262.25
2023-01-07T08:17:34.076Z,99270.56
2023-01-07T08:20:00.436Z,99277.53
2023-01-07T08:22:26.874Z,99283.69
2023-01-07T08:24:53.514Z,99288.34
2023-01-07T08:27:19.913Z,99296.31
2023-01-07T08:29:46.340Z,99316.09
2023-01-07T08:32:13.141Z,99366.63
2023-01-07T08:34:39.784Z,99389.75
2023-01-07T08:37:06.129Z,99399.88
2023-01-07T08:39:32.790Z,99406.84
2023-01-07T08:41:59.256Z,99369.28
2023-01-07T08:44:25.588Z,99336.06
2023-01-07T08:46:53.122Z,99344.19
2023-01-07T08:49:19.501Z,99342.84
2023-01-07T08:51:45.975Z,99337.19
2023-01-07T08:54:12.304Z,99315.22
2023-01-07T08:56:38.895Z,99297.56
2023-01-07T08:59:05.470Z,99313.38
2023-01-07T09:01:31.958Z,99303.38
2023-01-07T09:03:58.487Z,99295.03
2023-01-07T09:06:24.872Z,99287.88
2023-01-07T09:08:51.525Z,99281.84
2023-01-07T09:11:17.830Z,99284.66
2023-01-07T09:13:44.270Z,99233.59
2023-01-07T09:16:10.680Z,99249.19
2023-01-07T09:18:37.014Z,99239.16
2023-01-07T09:21:03.566Z,99227.97
2023-01-07T09:23:30.110Z,99193.47
2023-01-07T09:25:56.622Z,99184.25
2023-01-07T09:28:23.085Z,99163.59
2023-01-07T09:30:49.504Z,99147.53
2023-01-07T09:33:15.953Z,99135.25
2023-01-07T09:35:42.364Z,99099.19
2023-01-07T09:38:08.784Z,99117.13
2023-01-07T09:40:41.241Z,99108.41
2023-01-07T09:43:59.321Z,99075.66
2023-01-07T09:46:24.422Z,99089.66
2023-01-07T09:49:03.674Z,99117.22
2023-01-07T09:51:38.805Z,99103.13
2023-01-07T09:54:18.474Z,99094.38
2023-01-07T09:56:45.916Z,99103.63
2023-01-07T09:59:19.618Z,99103.72
2023-01-07T10:01:54.691Z,99093.06
2023-01-07T10:04:43.330Z,99071.75
2023-01-07T10:07:29.196Z,99069.16
2023-01-07T10:10:23.065Z,99053.25
2023-01-07T10:12:55.511Z,99028.44
2023-01-07T10:15:30.876Z,99020.69
2023-01-07T10:18:10.596Z,99007.56
2023-01-07T10:20:55.520Z,98996.09
2023-01-07T10:23:32.539Z,98973.34
2023-01-07T10:26:01.335Z,98959.66
2023-01-07T10:28:57.028Z,98954.69
2023-01-07T10:31:27.614Z,98926.53
2023-01-07T10:33:56.219Z,98895.69
2023-01-07T10:36:30.832Z,98864.16
2023-01-07T10:39:11.966Z,98837.22
2023-01-07T10:41:48.681Z,98833.34
2023-01-07T10:44:39.722Z,98827.25
2023-01-07T10:47:24.629Z,98809.91
2023-01-07T10:50:22.166Z,98803.00
2023-01-07T10:53:26.551Z,98805.38
2023-01-07T10:56:20.442Z,98795.34
2023-01-07T10:58:49.271Z,98796.88
2023-01-07T11:01:31.489Z,98789.31
2023-01-07T11:03:58.988Z,98796.41
2023-01-07T11:06:48.261Z,98787.91
2023-01-07T11:09:30.434Z,98788.69
2023-01-07T11:12:01.346Z,98776.78
2023-01-07T11:14:30.906Z,98777.19
2023-01-07T11:17:23.993Z,98775.72
2023-01-07T11:19:50.908Z,98763.00
2023-01-07T11:22:26.271Z,98763.03
2023-01-07T11:24:58.315Z,98745.28
2023-01-07T11:27:30.069Z,98744.06
2023-01-07T11:30:19.660Z,98729.63
2023-01-07T11:32:55.931Z,98728.00
2023-01-07T11:35:25.243Z,98729.25
2023-01-07T11:37:51.790Z,98720.59
2023-01-07T11:40:27.711Z,98714.84
2023-01-07T11:42:58.046Z,98703.69
2023-01-07T11:45:31.219Z,98715.81
2023-01-07T11:48:20.284Z,98709.09
2023-01-07T11:51:02.107Z,98716.00
2023-01-07T11:53:41.870Z,98711.72
2023-01-07T11:56:22.981Z,98696.13
2023-01-07T11:59:14.496Z,98683.78
2023-01-07T12:01:48.142Z,98677.19
2023-01-07T12:04:26.793Z,98671.84
2023-01-07T12:06:57.602Z,98676.59
2023-01-07T12:09:37.601Z,98662.59
2023-01-07T12:12:11.143Z,98658.47
2023-01-07T12:14:38.840Z,98656.59
2023-01-07T12:17:08.195Z,98651.00
2023-01-07T12:19:56.067Z,98644.06
2023-01-07T12:22:28.632Z,98643.69
2023-01-07T12:25:18.147Z,98629.44
2023-01-07T12:28:13.700Z,98623.09
2023-01-07T12:30:41.447Z,98623.44
2023-01-07T12:33:31.488Z,98611.63
2023-01-07T12:36:03.117Z,98601.00
2023-01-07T12:38:50.826Z,98604.44
2023-01-07T12:41:26.306Z,98599.00
2023-01-07T12:44:05.694Z,98588.75
2023-01-07T12:46:50.231Z,98584.56
2023-01-07T12:49:24.676Z,98580.84
2023-01-07T12:52:00.510Z,98582.38
2023-01-07T12:54:45.022Z,98577.84
2023-01-07T12:57:21.660Z,98578.41
2023-01-07T12:59:52.575Z,98566.81
2023-01-07T13:02:42.111Z,98566.94
2023-01-07T13:05:27.619Z,98563.22
2023-01-07T13:07:59.057Z,98550.06
2023-01-07T13:10:30.827Z,98546.97
2023-01-07T13:13:02.498Z,98546.19
2023-01-07T13:15:34.683Z,98541.44
2023-01-07T13:18:10.176Z,98550.72
2023-01-07T13:20:52.069Z,98541.28
2023-01-07T13:24:11.460Z,98547.22
2023-01-07T13:26:55.753Z,98547.63
2023-01-07T13:29:53.504Z,98544.75
2023-01-07T13:32:35.259Z,98540.84
2023-01-07T13:35:12.313Z,98532.41
2023-01-07T13:38:05.196Z,98529.09
2023-01-07T13:41:00.702Z,98525.38
2023-01-07T13:43:33.558Z,98524.59
2023-01-07T13:46:14.014Z,98515.34
2023-01-07T13:48:46.740Z,98513.28
2023-01-07T13:51:13.570Z,98516.97
2023-01-07T13:53:39.875Z,98518.00
2023-01-07T13:56:18.513Z,98513.25
2023-01-07T13:58:47.599Z,98518.03
2023-01-07T14:01:23.750Z,98517.63
2023-01-07T14:03:53.655Z,98513.31
2023-01-07T14:06:19.956Z,98504.25
2023-01-07T14:09:04.970Z,98503.84
2023-01-07T14:11:31.248Z,98504.66
2023-01-07T14:14:26.632Z,98500.13
2023-01-07T14:17:07.386Z,98505.66
2023-01-07T14:19:47.968Z,98502.78
2023-01-07T14:22:27.258Z,98508.09
2023-01-07T14:25:30.761Z,98507.06
2023-01-07T14:28:31.439Z,98509.16
2023-01-07T14:30:58.375Z,98505.44
2023-01-07T14:33:26.272Z,98515.72
2023-01-07T14:35:57.061Z,98514.03
2023-01-07T14:38:29.445Z,98515.91
2023-01-07T14:41:10.754Z,98514.44
2023-01-07T14:43:43.109Z,98508.69
2023-01-07T14:46:30.608Z,98527.16
2023-01-07T14:49:00.037Z,98524.03
2023-01-07T14:51:56.224Z,98529.78
2023-01-07T14:54:41.827Z,98528.94
2023-01-07T14:57:19.663Z,98523.78
2023-01-07T15:00:04.754Z,98531.13
2023-01-07T15:02:58.400Z,98540.75
2023-01-07T15:06:01.707Z,98542.34
2023-01-07T15:08:42.136Z,98548.47
2023-01-07T15:11:16.125Z,98552.31
2023-01-07T15:13:51.141Z,98551.88
2023-01-07T15:16:21.563Z,98555.34
2023-01-07T15:18:51.022Z,98554.28
2023-01-07T15:21:25.711Z,98561.84
2023-01-07T15:24:10.087Z,98558.38
2023-01-07T15:27:05.867Z,98547.66
2023-01-07T15:29:43.548Z,98556.19
2023-01-07T15:32:40.278Z,98550.78
2023-01-07T15:35:17.540Z,98564.78
2023-01-07T15:37:48.761Z,98585.38
2023-01-07T15:40:20.514Z,98612.19
2023-01-07T15:42:49.835Z,98629.88
2023-01-07T15:45:19.627Z,98636.69
2023-01-07T15:47:46.235Z,98654.78
2023-01-07T15:50:33.038Z,98666.09
2023-01-07T15:53:16.796Z,98684.13
2023-01-07T15:55:50.936Z,98703.03
2023-01-07T15:58:24.534Z,98726.41
2023-01-07T16:00:57.084Z,98728.69
2023-01-07T16:03:24.567Z,98754.16
2023-01-07T16:05:51.130Z,98760.38
2023-01-07T16:08:20.870Z,98762.91
2023-01-07T16:11:08.778Z,98770.28
2023-01-07T16:13:36.854Z,98783.81
2023-01-07T16:16:04.216Z,98797.78
2023-01-07T16:18:32.375Z,98806.47
2023-01-07T16:21:08.372Z,98812.97
2023-01-07T16:23:38.137Z,98814.97
2023-01-07T16:26:21.244Z,98813.31
2023-01-07T16:28:50.936Z,98816.66
2023-01-07T16:31:20.934Z,98832.28
2023-01-07T16:33:50.040Z,98846.41
2023-01-07T16:36:20.891Z,98850.56
2023-01-07T16:38:48.325Z,98834.16
2023-01-07T16:41:25.763Z,98830.09
2023-01-07T16:43:57.670Z,98815.66
2023-01-07T16:46:28.010Z,98815.81
2023-01-07T16:49:13.419Z,98810.69
2023-01-07T16:51:44.372Z,98814.88
2023-01-07T16:54:21.028Z,98812.09
2023-01-07T16:56:49.742Z,98823.75
2023-01-07T16:59:16.168Z,98840.00
2023-01-07T17:01:42.701Z,98856.63
2023-01-07T17:04:17.726Z,98844.53
2023-01-07T17:06:44.557Z,98856.16
2023-01-07T17:09:25.304Z,98877.91
2023-01-07T17:11:53.508Z,98892.38
2023-01-07T17:14:35.015Z,98916.56
2023-01-07T17:17:08.999Z,98953.53
2023-01-07T17:19:47.751Z,98967.63
2023-01-07T17:22:33.847Z,98990.97
2023-01-07T17:25:15.806Z,99029.28
2023-01-07T17:27:51.229Z,99043.00
2023-01-07T17:30:20.741Z,99063.53
2023-01-07T17:32:49.178Z,99058.53
2023-01-07T17:35:17.644Z,99066.00
2023-01-07T17:37:43.958Z,99074.06
2023-01-07T17:40:11.108Z,99071.00
2023-01-07T17:42:37.568Z,99077.94
2023-01-07T17:45:04.294Z,99088.50
2023-01-07T17:47:30.597Z,99110.47
2023-01-07T17:49:57.053Z,99123.03
2023-01-07T17:52:23.786Z,99131.59
2023-01-07T17:54:50.114Z,99148.97
2023-01-07T17:57:16.540Z,99151.06
2023-01-07T17:59:42.951Z,99163.97
2023-01-07T18:02:17.283Z,99174.69
2023-01-07T18:04:44.121Z,99175.47
2023-01-07T18:07:19.499Z,99188.31
2023-01-07T18:09:45.976Z,99181.97
2023-01-07T18:12:17.860Z,99203.47
2023-01-07T18:14:44.191Z,99221.16
2023-01-07T18:17:11.171Z,99232.19
2023-01-07T18:19:37.499Z,99250.19
2023-01-07T18:22:04.107Z,99265.53
2023-01-07T18:24:31.513Z,99277.53
2023-01-07T18:26:57.857Z,99277.88
2023-01-07T18:29:25.137Z,99278.94
2023-01-07T18:31:51.720Z,99294.22
2023-01-07T18:34:18.350Z,99308.03
2023-01-07T18:36:44.851Z,99317.00
2023-01-07T18:39:19.225Z,99324.53
2023-01-07T18:41:47.007Z,99337.75
2023-01-07T18:44:14.177Z,99343.88
2023-01-07T18:46:40.504Z,99355.16
2023-01-07T18:49:07.250Z,99344.34
2023-01-07T18:51:33.815Z,99348.91
2023-01-07T18:54:00.160Z,99363.25
2023-01-07T18:56:26.510Z,99378.53
2023-01-07T18:58:53.824Z,99376.06
2023-01-07T19:01:20.568Z,99379.28
2023-01-07T19:03:47.875Z,99384.41
2023-01-07T19:06:15.596Z,99393.44
2023-01-07T19:08:42.127Z,99396.25
2023-01-07T19:11:11.284Z,99399.44
2023-01-07T19:13:37.777Z,99398.63
2023-01-07T19:16:09.440Z,99411.28
2023-01-07T19:18:36.011Z,99402.22
2023-01-07T19:21:03.403Z,99390.25
2023-01-07T19:23:31.158Z,99411.69
2023-01-07T19:26:03.134Z,99420.97
2023-01-07T19:28:29.648Z,99428.50
2023-01-07T19:30:56.285Z,99116.28
2023-01-07T19:33:22.786Z,98906.78
2023-01-07T19:35:49.130Z,98903.31
2023-01-07T19:38:15.666Z,98897.50
2023-01-07T19:40:45.823Z,98885.28
2023-01-07T19:43:12.884Z,98873.34
2023-01-07T19:45:40.260Z,98868.06
2023-01-07T19:48:07.386Z,98870.34
2023-01-07T19:50:33.986Z,98869.25
2023-01-07T19:53:00.333Z,98858.69
2023-01-07T19:55:26.763Z,98855.31
2023-01-07T19:57:53.122Z,98841.59
2023-01-07T20:00:19.483Z,98843.03
2023-01-07T20:02:45.903Z,98832.28
2023-01-07T20:05:12.216Z,98844.13
2023-01-07T20:07:38.737Z,98841.28
2023-01-07T20:10:05.420Z,98844.38
2023-01-07T20:12:31.913Z,98842.47
2023-01-07T20:14:58.335Z,98834.16
2023-01-07T20:17:24.627Z,98828.34
2023-01-07T20:19:51.101Z,98807.22
2023-01-07T20:22:17.925Z,98795.84
2023-01-07T20:24:44.368Z,98794.88
2023-01-07T20:27:10.835Z,98784.47
2023-01-07T20:29:37.295Z,98777.84
2023-01-07T20:32:04.078Z,98777.84
2023-01-07T20:34:30.493Z,98764.78
2023-01-07T20:36:57.031Z,98757.84
2023-01-07T20:39:23.340Z,98747.44
2023-01-07T20:41:49.847Z,98756.22
2023-01-07T20:44:17.171Z,98741.34
2023-01-07T20:46:43.864Z,98737.47
2023-01-07T20:49:10.405Z,98740.28
2023-01-07T20:51:36.904Z,98726.88
2023-01-07T20:54:03.381Z,98735.75
2023-01-07T20:56:29.757Z,98738.06
2023-01-07T20:58:56.523Z,98737.72
2023-01-07T21:01:22.980Z,98741.00
2023-01-07T21:03:49.877Z,98742.69
2023-01-07T21:06:18.644Z,98749.09
2023-01-07T21:08:46.889Z,98742.47
2023-01-07T21:11:18.625Z,98740.94
2023-01-07T21:13:46.150Z,98727.66
2023-01-07T21:16:13.540Z,98729.75
2023-01-07T21:18:40.014Z,98726.69
2023-01-07T21:21:14.915Z,98725.56
2023-01-07T21:23:41.767Z,98716.16
2023-01-07T21:26:09.275Z,98709.66
2023-01-07T21:28:36.073Z,98715.59
2023-01-07T21:31:07.049Z,98707.31
2023-01-07T21:33:33.395Z,98708.72
2023-01-07T21:35:59.836Z,98715.13
2023-01-07T21:38:26.353Z,98707.09
2023-01-07T21:40:52.746Z,98706.00
2023-01-07T21:43:19.034Z,98710.00
2023-01-07T21:45:45.375Z,98711.97
2023-01-07T21:48:11.940Z,98718.81
2023-01-07T21:50:38.452Z,98717.03
2023-01-07T21:53:05.111Z,98715.00
2023-01-07T21:55:31.705Z,98708.31
2023-01-07T21:57:58.283Z,98699.75
2023-01-07T22:00:24.674Z,98697.13
2023-01-07T22:02:51.063Z,98685.59
2023-01-07T22:05:17.529Z,98676.19
2023-01-07T22:07:43.979Z,98679.09
2023-01-07T22:10:10.601Z,98682.84
2023-01-07T22:12:36.919Z,98685.78
2023-01-07T22:15:03.583Z,98675.94
2023-01-07T22:17:29.947Z,98667.78
2023-01-07T22:19:56.450Z,98670.19
2023-01-07T22:22:22.929Z,98661.59
2023-01-07T22:24:49.251Z,98656.91
2023-01-07T22:27:15.553Z,98642.50
2023-01-07T22:29:42.292Z,98636.41
2023-01-07T22:32:08.610Z,98633.41
2023-01-07T22:34:34.943Z,98636.59
2023-01-07T22:37:15.036Z,98630.53
2023-01-07T22:39:45.996Z,98619.41
2023-01-07T22:42:18.530Z,98614.44
2023-01-07T22:44:53.922Z,98613.50
2023-01-07T22:47:28.486Z,98605.34
2023-01-07T22:49:56.074Z,98609.38
2023-01-07T22:52:22.674Z,98599.25
2023-01-07T22:54:49.126Z,98602.59
2023-01-07T22:57:15.805Z,98602.59
2023-01-07T22:59:42.440Z,98595.81
2023-01-07T23:02:08.746Z,98592.94
2023-01-07T23:04:35.387Z,98586.25
2023-01-07T23:07:02.019Z,98588.34
2023-01-07T23:09:28.473Z,98574.66
2023-01-07T23:11:54.849Z,98571.06
2023-01-07T23:14:22.813Z,98563.28
2023-01-07T23:16:50.438Z,98565.09
2023-01-07T23:19:17.798Z,98578.25
2023-01-07T23:21:45.854Z,98570.94
2023-01-07T23:24:13.544Z,98555.97
2023-01-07T23:26:41.089Z,98556.13
2023-01-07T23:29:08.188Z,98551.94
2023-01-07T23:31:35.785Z,98543.38
2023-01-07T23:34:02.714Z,98531.22
2023-01-07T23:36:29.786Z,98532.59
2023-01-07T23:38:56.119Z,98537.06
2023-01-07T23:41:23.146Z,98544.25
2023-01-07T23:43:50.694Z,98520.72
2023-01-07T23:46:17.130Z,98535.69
2023-01-07T23:48:43.480Z,98529.44
2023-01-07T23:51:27.906Z,98515.47
2023-01-07T23:53:54.364Z,98529.16
2023-01-07T23:56:21.740Z,98528.66
2023-01-07T23:58:49.016Z,98530.22
